Agra, India
Current Conditions -  °F | °C
As of 2:00 PM on Thursday 18 Dec 2014 (Local Time) from VIDP Reporting Station
Haze Haze  
Wind Chill: 55°   Ceiling: Unl
Heat Index: 55°   Visibility: 0.75mi
Dew Point: 54°   Wind: 3mph
Humidity: 94%   Direction: 250°WSW
Pressure: 30.12"   Gusts: NA
Location:  27.18°N, 78.01°E
Report Text: VIDP 180900Z 25003KT 1200 R28/2000 R10/2000 R29/1600 R11/1800 BR FEW040 13/12 Q1020 BECMG VIS 1500
Loading
Personal Weather Stations






























Interactive Weather Map New forecast layout! Learn more

10-Day Weather Forecast

Advertisements
Track Severe Weather on mobile